• Join FlightAware (Why Join?)
  • Login
  • US Flag 
10:41AM EDT


 

Airport Tracker/Info


-or-


 

Live Flight TrackerFlight Track Log ✈ EJA951 ✈ 23-May-2013 ✈ KBFI - KALB

Flight Track Log - Related Links

Times and Time Zones

All times are in EDT time to prevent confusion due to time zone crossing. See the EJA951 flight status page for this flight to view local times or setup timezone preferences in your user account.

Time Position Orientation Groundspeed Altitude Reporting Facility
EDT Latitude Longitude Course Direction KTS MPH feet Rate Location/Type
12:04AM 47.4975 -122.2758 138° Southeast 205 236 1,400  Level Seattle Center
12:05AM 47.4528 -122.2167 138° Southeast 210 242 4,800 2,520 Climbing Seattle Center
12:06AM 47.4489 -122.1100 93° East 259 298 6,800 2,520 Climbing Seattle Center
12:07AM 47.4436 -121.9961 94° East 277 319 10,000 2,880 Climbing Seattle Center
12:08AM 47.4367 -121.8667 94° East 296 341 12,700 2,460 Climbing Seattle Center
12:09AM 47.4300 -121.7361 94° East 318 366 15,000 2,280 Climbing Seattle Center
12:10AM 47.4272 -121.5992 92° East 335 386 17,300 2,160 Climbing Seattle Center
12:11AM 47.4242 -121.4656 92° East 348 400 19,400 2,100 Climbing Seattle Center
12:12AM 47.4275 -121.3186 88° East 360 414 21,600 2,220 Climbing Seattle Center
12:13AM 47.4300 -121.1697 89° East 368 423 23,900 2,160 Climbing Seattle Center
12:14AM 47.4317 -121.0156 89° East 377 434 26,100 2,040 Climbing Seattle Center
12:15AM 47.4333 -120.8542 89° East 394 453 28,100 1,740 Climbing Seattle Center
12:16AM 47.4347 -120.6650 89° East 411 473 29,700 1,560 Climbing Seattle Center
12:17AM 47.4367 -120.4864 89° East 432 497 31,300 1,440 Climbing Seattle Center
12:18AM 47.4369 -120.3036 90° East 445 512 32,700 1,440 Climbing Seattle Center
12:19AM 47.4383 -120.1206 89° East 449 517 34,300 1,320 Climbing Seattle Center
12:20AM 47.4392 -119.9367 90° East 449 517 35,400 1,020 Climbing Seattle Center
12:21AM 47.4381 -119.7511 90° East 453 521 36,400 960 Climbing Seattle Center
12:22AM 47.4386 -119.5667 90° East 453 521 37,400 840 Climbing Seattle Center
12:23AM 47.4386 -119.3839 90° East 448 516 38,100 540 Climbing Seattle Center
12:24AM 47.4381 -119.1953 90° East 459 528 38,600 420 Climbing Seattle Center
12:25AM 47.4356 -119.0064 91° East 460 529 39,000 180 Climbing Seattle Center
12:26AM 47.4364 -118.8133 90° East 470 541 39,000  Level Seattle Center
12:27AM 47.4339 -118.6147 91° East 483 556 39,000  Level Seattle Center
12:28AM 47.4311 -118.3733 91° East 491 565 39,000  Level Seattle Center
12:29AM 47.4292 -118.1697 91° East 497 572 39,000  Level Seattle Center
12:30AM 47.4264 -117.9661 91° East 499 574 39,000  Level Seattle Center
12:31AM 47.4233 -117.7633 91° East 498 573 39,000  Level Seattle Center
12:32AM 47.4206 -117.5614 91° East 497 572 39,000  Level Seattle Center
12:33AM 47.4167 -117.3608 92° East 494 568 39,000  Level Seattle Center
12:34AM 47.4119 -117.1603 92° East 499 574 39,000  Level Seattle Center
12:35AM 47.4081 -116.9617 92° East 498 573 39,000  Level Seattle Center
12:36AM 47.4039 -116.7611 92° East 498 573 39,000  Level Seattle Center
12:37AM 47.3978 -116.5569 92° East 502 578 39,000  Level Seattle Center
12:38AM 47.3928 -116.3531 92° East 500 575 39,000  Level Seattle Center
12:39AM 47.3844 -116.1050 93° East 505 581 39,000  Level Seattle Center
12:40AM 47.3778 -115.9000 93° East 504 580 39,000  Level Seattle Center
12:41AM 47.3722 -115.7297 93° East 501 577 39,000  Level Seattle Center
12:42AM 47.3642 -115.4847 93° East 502 578 39,000  Level Seattle Center
12:43AM 47.3567 -115.2800 93° East 504 580 39,000  Level Seattle Center
12:44AM 47.3481 -115.0756 93° East 503 579 39,000  Level Seattle Center
12:45AM 47.3397 -114.8719 93° East 503 579 39,000  Level Seattle Center
12:46AM 47.3311 -114.6669 93° East 504 580 39,000  Level Seattle Center
12:47AM 47.3242 -114.5036 94° East 502 578 39,000  Level Salt Lake Center
12:48AM 47.3142 -114.2986 94° East 505 581 39,000  Level Salt Lake Center
12:49AM 47.3047 -114.0967 94° East 500 575 39,000  Level Salt Lake Center
12:50AM 47.2947 -113.8942 94° East 500 575 39,000  Level Salt Lake Center
12:51AM 47.2836 -113.6917 95° East 502 578 39,000  Level Salt Lake Center
12:52AM 47.2733 -113.4883 94° East 502 578 39,000  Level Salt Lake Center
12:53AM 47.2606 -113.2458 94° East 500 575 39,000  Level Salt Lake Center
12:54AM 47.2486 -113.0428 95° East 501 577 39,000  Level Salt Lake Center
12:55AM 47.2367 -112.8469 95° East 500 575 39,000  Level Salt Lake Center
12:56AM 47.2256 -112.6433 95° East 502 578 39,000  Level Salt Lake Center
12:58AM 47.2076 -112.3669 95° East  Level FlightAware Approximate
01:00AM 47.1703 -111.7850 96° East 508 585 39,000  Level Salt Lake Center
01:01AM 47.1556 -111.5794 96° East 510 587 39,000  Level Salt Lake Center
01:02AM 47.1403 -111.3758 96° East 509 586 39,000  Level Salt Lake Center
01:03AM 47.1264 -111.1725 96° East 508 585 39,000  Level Salt Lake Center
01:04AM 47.1114 -110.9667 96° East 511 588 39,000  Level Salt Lake Center
01:05AM 47.1067 -110.9709 96° East  Level FlightAware Approximate
01:05AM 47.0942 -110.7603 97° East 514 592 39,000  Level Salt Lake Center
01:06AM 47.0772 -110.5539 97° East 515 593 38,900  Descending Salt Lake Center
01:07AM 47.0614 -110.3461 96° East 516 594 39,000 60 Climbing Salt Lake Center
01:08AM 47.0450 -110.1375 97° East 518 596 39,100 540 Climbing Salt Lake Center
01:09AM 47.0250 -109.8914 97° East 513 590 40,200 780 Climbing Salt Lake Center
01:10AM 47.0092 -109.6911 97° East 504 580 40,700 360 Climbing Salt Lake Center
01:11AM 46.9906 -109.4914 98° East 499 574 41,000 60 Climbing Salt Lake Center
01:12AM 46.9711 -109.2847 98° East 507 583 40,900  Descending Salt Lake Center
01:13AM 46.9528 -109.0775 97° East 514 592 41,000  Climbing Salt Lake Center
01:14AM 46.9289 -108.8594 99° East 509 586 41,000 180 Level Salt Lake Center
01:15AM 46.9106 -108.6581 98° East 517 595 41,400 600 Climbing Salt Lake Center
01:16AM 46.8917 -108.4633 98° East 510 587 42,300 780 Climbing Salt Lake Center
01:17AM 46.8700 -108.2469 98° East 487 560 43,000 300 Climbing Salt Lake Center
01:18AM 46.8508 -108.0575 98° East 489 563 43,000  Level Salt Lake Center
01:19AM 46.8308 -107.8586 98° East 507 583 43,000  Level Salt Lake Center
01:21AM 46.8075 -107.6300 98° East 509 586 43,000  Level Salt Lake Center
01:22AM 46.7864 -107.4322 99° East 512 589 43,000  Level Salt Lake Center
01:23AM 46.7642 -107.2344 99° East 515 593 43,000  Level Salt Lake Center
01:24AM 46.7381 -107.0022 99° East 518 596 43,000  Level Salt Lake Center
01:25AM 46.7153 -106.8019 99° East 521 600 43,000  Level Salt Lake Center
01:26AM 46.6936 -106.6058 99° East 517 595 43,000  Level Salt Lake Center
01:27AM 46.6653 -106.3733 100° East 521 600 43,000  Level Salt Lake Center
01:28AM 46.6403 -106.1731 100° East 524 603 43,000  Level Salt Lake Center
01:29AM 46.6153 -105.9747 100° East 522 601 43,000  Level Salt Lake Center
01:30AM 46.5872 -105.7456 100° East 519 597 43,000  Level Salt Lake Center
01:31AM 46.5622 -105.5489 100° East 518 596 43,000  Level Salt Lake Center
01:32AM 46.5369 -105.3517 100° East 518 596 43,000 -180 Level Salt Lake Center
01:33AM 46.5125 -105.1564 100° East 515 593 42,700 -480 Descending Salt Lake Center
01:34AM 46.4833 -104.9275 100° East 516 594 42,100 -600 Descending Salt Lake Center
01:35AM 46.4592 -104.7444 101° East 521 600 41,600 -540 Descending Salt Lake Center
01:36AM 46.4311 -104.5367 101° East 526 605 41,100 -300 Descending Salt Lake Center
01:37AM 46.4044 -104.3325 101° East 523 602 41,000 -60 Descending Salt Lake Center
01:38AM 46.3769 -104.1264 101° East 523 602 41,000  Level Salt Lake Center
01:39AM 46.3408 -103.8808 102° East 524 603 41,000  Level Salt Lake Center
01:40AM 46.3125 -103.6767 101° East 522 601 41,000  Level Salt Lake Center
01:41AM 46.2831 -103.4694 102° East 524 603 41,000  Level Salt Lake Center
01:42AM 46.2536 -103.2617 102° East 527 606 41,000  Level Salt Lake Center
01:43AM 46.2181 -103.0200 102° East 528 608 41,000  Level Minneapolis Center
01:44AM 46.1872 -102.8136 102° East 528 608 41,000  Level Minneapolis Center
01:45AM 46.1547 -102.6064 103° East 531 611 41,000  Level Minneapolis Center
01:46AM 46.1225 -102.3992 103° East 532 612 41,000  Level Minneapolis Center
01:47AM 46.0886 -102.1947 103° East 532 612 41,000  Level Minneapolis Center
01:48AM 46.0522 -101.9886 104° East 532 612 41,000  Level Minneapolis Center
01:49AM 46.0203 -101.7789 102° East 533 613 41,000  Level Minneapolis Center
01:50AM 45.9858 -101.5683 103° East 536 617 41,000  Level Minneapolis Center
01:51AM 45.9525 -101.3592 103° East 537 618 41,000  Level Minneapolis Center
01:52AM 45.9217 -101.1433 102° East 543 625 41,000  Level Minneapolis Center
01:53AM 45.8861 -100.9319 104° East 545 627 41,000  Level Minneapolis Center
01:54AM 45.8497 -100.7219 104° East 543 625 41,000  Level Minneapolis Center
01:55AM 45.8136 -100.5128 104° East 540 621 41,000  Level Minneapolis Center
01:56AM 45.7764 -100.3019 104° East 542 624 41,000  Level Minneapolis Center
01:57AM 45.7383 -100.0886 104° East 548 631 41,000  Level Minneapolis Center
01:58AM 45.7017 -99.8769 104° East 547 629 41,000  Level Minneapolis Center
01:59AM 45.6622 -99.6653 105° East 547 629 41,000  Level Minneapolis Center
02:00AM 45.6244 -99.4522 104° East 549 632 41,000  Level Minneapolis Center
02:01AM 45.5856 -99.2428 105° East 546 628 41,000  Level Minneapolis Center
02:02AM 45.5458 -99.0333 105° East 544 626 41,000  Level Minneapolis Center
02:03AM 45.5056 -98.8228 105° East 546 628 41,100 420 Climbing Minneapolis Center
02:04AM 45.4672 -98.6211 105° East 534 615 41,900 540 Climbing Minneapolis Center
02:05AM 45.4283 -98.4197 105° East 528 608 42,300 420 Climbing Minneapolis Center
02:06AM 45.4111 -98.2147 97° East 523 602 42,800 300 Climbing Minneapolis Center
02:07AM 45.4056 -98.0478 93° East 527 606 43,000  Climbing Minneapolis Center
02:09AM 45.3898 -97.7563 94° East  Level FlightAware Approximate
02:11AM 45.3711 -97.1394 94° East 541 623 43,000  Level Minneapolis Center
02:12AM 45.3617 -96.9269 94° East 539 620 43,000  Level Minneapolis Center
02:13AM 45.3517 -96.7175 94° East 533 613 43,000  Level Minneapolis Center
02:14AM 45.3414 -96.5078 94° East 532 612 43,000  Level Minneapolis Center
02:15AM 45.3303 -96.2972 94° East 533 613 43,000  Level Minneapolis Center
02:16AM 45.3287 -96.3961 93° East  Level FlightAware Approximate
02:16AM 45.3192 -96.0872 94° East 533 613 43,000  Level Minneapolis Center
02:17AM 45.3187 -96.2021 94° East  Level FlightAware Approximate
02:17AM 45.3081 -95.8761 94° East 535 616 43,000  Level Minneapolis Center
02:18AM 45.2981 -95.6636 94° East 538 619 43,000  Level Minneapolis Center
02:19AM 45.2853 -95.4525 95° East 537 618 43,000  Level Minneapolis Center
02:20AM 45.2728 -95.2431 95° East 533 613 43,000  Level Minneapolis Center
02:21AM 45.2603 -95.0339 95° East 532 612 43,000  Level Minneapolis Center
02:22AM 45.2472 -94.8256 95° East 531 611 43,000  Level Minneapolis Center
02:23AM 45.2339 -94.6186 95° East 528 608 43,000  Level Minneapolis Center
02:24AM 45.2219 -94.4497 96° East 529 609 43,000  Level Minneapolis Center
02:25AM 45.2067 -94.2036 95° East 525 604 43,000  Level Minneapolis Center
02:26AM 45.1914 -93.9967 96° East 528 608 43,000  Level Minneapolis Center
02:27AM 45.1761 -93.7892 96° East 529 609 43,000  Level Minneapolis Center
02:28AM 45.1606 -93.5819 96° East 529 609 43,000  Level Minneapolis Center
02:29AM 45.1453 -93.3719 96° East 533 613 43,000  Level Minneapolis Center
02:30AM 45.1272 -93.1611 97° East 535 616 43,000  Level Minneapolis Center
02:31AM 45.1117 -92.9908 97° East 540 621 43,000  Level Minneapolis Center
02:32AM 45.0925 -92.7792 97° East 540 621 43,000  Level Minneapolis Center
02:33AM 45.0733 -92.5706 97° East 536 617 43,000  Level Minneapolis Center
02:34AM 45.0539 -92.3603 97° East 538 619 43,000  Level Minneapolis Center
02:35AM 45.0331 -92.1497 98° East 541 623 43,000  Level Minneapolis Center
02:36AM 45.0069 -91.8997 98° East 537 618 43,000  Level Minneapolis Center
02:37AM 44.9858 -91.6917 98° East 535 616 43,000  Level Minneapolis Center
02:38AM 44.9611 -91.4850 100° East 535 616 43,000  Level Minneapolis Center
02:39AM 44.9400 -91.2797 98° East 534 615 43,000  Level Minneapolis Center
02:40AM 44.9181 -91.0739 98° East 532 612 43,000  Level Minneapolis Center
02:41AM 44.8933 -90.8681 100° East 534 615 43,000  Level Minneapolis Center
02:42AM 44.8733 -90.6906 99° East 533 613 43,000  Level Minneapolis Center
02:43AM 44.8392 -90.4875 103° East 535 616 43,000  Level Minneapolis Center
02:44AM 44.8042 -90.2664 103° East 536 617 43,000  Level Minneapolis Center
02:45AM 44.7694 -90.0614 103° East 538 619 43,000  Level Minneapolis Center
02:46AM 44.7347 -89.8561 103° East 540 621 43,000  Level Minneapolis Center
02:47AM 44.6992 -89.6539 104° East 536 617 43,000  Level Minneapolis Center
02:48AM 44.6633 -89.4497 104° East 537 618 43,000  Level Minneapolis Center
02:49AM 44.6275 -89.2472 104° East 536 617 43,000  Level Minneapolis Center
02:50AM 44.5925 -89.0433 103° East 536 617 43,000  Level Minneapolis Center
02:51AM 44.5556 -88.8419 104° East 532 612 43,000  Level Minneapolis Center
02:52AM 44.5192 -88.6386 104° East 535 616 43,000  Level Minneapolis Center
02:53AM 44.4811 -88.4372 105° East 533 613 43,000  Level Minneapolis Center
02:54AM 44.4433 -88.2347 105° East 536 617 43,000  Level Minneapolis Center
02:55AM 44.4047 -88.0328 105° East 536 617 43,000  Level Minneapolis Center
02:56AM 44.3669 -87.8322 105° East 533 613 43,000  Level Minneapolis Center
02:57AM 44.3278 -87.6300 105° East 536 617 43,000  Level Minneapolis Center
02:58AM 44.2883 -87.4283 105° East 536 617 43,000  Level Minneapolis Center
02:59AM 44.2492 -87.2311 105° East 530 610 43,000  Level Minneapolis Center
03:00AM 44.2086 -87.0247 105° East 531 611 43,000  Level Minneapolis Center
03:01AM 44.1697 -86.8300 105° East 528 608 43,000  Level Minneapolis Center
03:02AM 44.1306 -86.6378 106° East 525 604 43,000  Level Minneapolis Center
03:03AM 44.0903 -86.4400 106° East 529 609 43,000 -180 Level Minneapolis Center
03:04AM 44.0497 -86.2433 106° East 529 609 42,700 -420 Descending Minneapolis Center
03:05AM 44.0086 -86.0406 106° East 539 620 42,200 -540 Descending Minneapolis Center
03:06AM 43.9653 -85.8364 106° East 548 631 41,700 -540 Descending Minneapolis Center
03:07AM 43.9233 -85.6344 106° East 545 627 41,200 -360 Descending Minneapolis Center
03:08AM 43.8797 -85.4325 107° East 546 628 41,000 -120 Descending Minneapolis Center
03:09AM 43.8369 -85.2311 106° East 545 627 41,000  Level Minneapolis Center
03:10AM 43.7936 -85.0311 107° East 542 624 41,000  Level Minneapolis Center
03:11AM 43.7486 -84.8319 107° East 542 624 41,000  Level Minneapolis Center
03:12AM 43.7047 -84.6322 107° East 541 623 41,000  Level Minneapolis Center
03:13AM 43.6603 -84.4344 107° East 541 623 41,000  Level Minneapolis Center
03:14AM 43.6228 -84.2683 107° East 541 623 41,000  Level Cleveland Center
03:15AM 43.5917 -84.0628 102° East 541 623 41,000  Level Cleveland Center
03:15AM 43.5953 -84.0300 81° East 541 623 41,000  Level Minneapolis Center
03:16AM 43.5875 -83.8244 93° East 539 620 41,000  Level Minneapolis Center
03:17AM 43.5794 -83.6203 93° East 535 616 41,000  Level Minneapolis Center
03:18AM 43.5725 -83.4161 93° East 534 615 41,000  Level Minneapolis Center
03:19AM 43.5589 -83.2503 96° East 534 615 41,000  Level Cleveland Center
03:20AM 43.5508 -83.0464 93° East 539 620 41,000  Level Cleveland Center
03:21AM 43.5425 -82.8456 93° East 534 615 41,000  Level Cleveland Center
03:22AM 43.5319 -82.6389 94° East 534 615 41,000  Level Cleveland Center
03:23AM 43.5228 -82.4356 93° East 534 615 41,000  Level Cleveland Center
03:24AM 43.5114 -82.2292 94° East 539 620 41,000  Level Cleveland Center
03:25AM 43.4833 -82.0000 100° East 530 610 41,000  Level Toronto Center
03:26AM 43.4833 -81.8000 90° East 540 621 41,000  Level Toronto Center
03:27AM 43.4667 -81.5833 96° East 530 610 41,000  Level Toronto Center
03:28AM 43.4500 -81.3833 96° East 540 621 41,000  Level Toronto Center
03:29AM 43.4333 -81.1667 96° East 530 610 41,000  Level Toronto Center
03:30AM 43.4167 -80.9833 97° East 530 610 41,000  Level Toronto Center
03:31AM 43.4167 -80.7500 90° East 530 610 41,000  Level Toronto Center
03:32AM 43.4000 -80.5667 97° East 530 610 41,000  Level Toronto Center
03:33AM 43.3833 -80.3667 96° East 530 610 41,000  Level Toronto Center
03:34AM 43.3833 -80.1667 90° East 540 621 41,000  Level Toronto Center
03:35AM 43.3667 -79.9500 96° East 540 621 41,000  Level Toronto Center
03:36AM 43.3500 -79.7500 96° East 540 621 41,000  Level Toronto Center
03:37AM 43.3333 -79.5333 96° East 540 621 41,000  Level Toronto Center
03:38AM 43.3167 -79.3333 96° East 540 621 41,000  Level Toronto Center
03:39AM 43.3000 -79.1333 96° East 540 621 41,000  Level Toronto Center
03:40AM 43.2833 -78.9167 96° East 540 621 41,000  Level Toronto Center
03:41AM 43.2703 -78.6986 95° East 541 623 41,000  Level Cleveland Center
03:42AM 43.2519 -78.4911 97° East 541 623 41,000  Level Cleveland Center
03:43AM 43.2333 -78.2694 96° East 536 617 41,000  Level Cleveland Center
03:44AM 43.2144 -78.0650 97° East 536 617 41,000  Level Cleveland Center
03:45AM 43.1953 -77.8608 97° East 536 617 41,000  Level Cleveland Center
03:47AM 43.1608 -77.5108 98° East 553 636 41,000  Level Boston Center
03:48AM 43.1425 -77.3100 97° East 545 627 41,000 -540 Level Boston Center
03:49AM 43.1242 -77.1033 97° East 539 620 40,000 -1,260 Descending Boston Center
03:50AM 43.1031 -76.8969 98° East 545 627 38,500 -1,500 Descending Boston Center
03:51AM 43.0803 -76.6764 98° East 545 627 37,000 -1,440 Descending Boston Center
03:52AM 43.0653 -76.5133 97° East 545 627 35,700 -1,560 Descending Boston Center
03:53AM 43.0400 -76.2842 99° East 524 603 33,900 -1,680 Descending Boston Center
03:54AM 43.0214 -76.0925 98° East 514 592 32,400 -1,500 Descending Boston Center
03:55AM 42.9983 -75.8953 99° East 514 592 30,900 -1,620 Descending Boston Center
03:56AM 42.9786 -75.7125 98° East 526 605 29,200 -2,040 Descending Boston Center
03:57AM 42.9547 -75.5211 100° East 526 605 26,900 -2,400 Descending Boston Center
03:58AM 42.9367 -75.3331 97° East 513 590 24,400 -2,580 Descending Boston Center
03:59AM 42.9142 -75.1533 100° East 497 572 21,800 -2,640 Descending Boston Center
04:00AM 42.8953 -74.9794 98° East 475 547 19,200 -2,640 Descending Boston Center
04:01AM 42.8831 -74.8714 99° East 443 510 17,700 -2,400 Descending Boston Center
04:01AM 42.8758 -74.8144 100° East 456 525 16,800 -2,640 Descending Boston Center
04:02AM 42.8575 -74.6861 101° East 433 498 14,800 -2,700 Descending Boston Center
04:02AM 42.8522 -74.6350 98° East 442 509 14,100 -2,460 Descending Boston Center
04:03AM 42.8378 -74.5183 100° East 451 519 12,300 -2,220 Descending Boston Center
04:03AM 42.8342 -74.4872 99° East 447 514 11,900 -1,680 Descending Boston Center
04:04AM 42.8342 -74.3653 90° East 402 463 10,600 -1,740 Descending Boston Center
04:04AM 42.8414 -74.3203 78° East 404 465 10,200 -600 Descending Boston Center
04:05AM 42.8572 -74.2358 76° East 323 372 10,000 -600 Descending Boston Center
04:05AM 42.8597 -74.2103 82° East 354 407 9,600 -1,800 Descending Boston Center
04:06AM 42.8756 -74.1231 76° East 291 335 8,200 -1,920 Descending Boston Center
04:06AM 42.8803 -74.0892 79° East 303 349 7,700 -1,800 Descending Boston Center
04:07AM 42.8939 -74.0131 76° East 290 334 6,400 -1,740 Descending Boston Center
04:07AM 42.8961 -73.9931 81° East 288 331 6,000 -1,800 Descending Boston Center
04:08AM 42.9119 -73.9086 76° East 285 328 4,600 -1,920 Descending Boston Center
04:08AM 42.9144 -73.8775 84° East 288 331 4,100 -1,200 Descending Boston Center
04:09AM 42.8986 -73.8175 110° East 260 299 3,400 -900 Descending Boston Center
04:09AM 42.8797 -73.8114 167° South 243 280 3,200 -1,200 Descending Boston Center
04:10AM 42.8339 -73.8103 179° South 207 238 2,200 -1,140 Descending Boston Center
04:10AM 42.8297 -73.8131 206° Southwest 167 192 2,100 -1,320 Descending Boston Center
04:11AM 42.7839 -73.8064 174° South 165 190 900 -1,620 Descending Boston Center